BAW37B LPPR-EGKK
Flight info
| Callsign | BAW37B |
|---|---|
| Flight time | N/A |
| Altitude | 24000 |
| Route | TURON P600 ASDEB/N0485F380 DCT KORUL DCT FEJAC DCT JSY/N0466F340 DCT REVTU/N0445F280 UP88 ODREP/N0420F240 P88 VASUX |
| Aircraft | B77W/H-SDE1E2E3FGHIJ2J3J4J5M1RWXY/LB1D1 |
Departure
| Time | N/A |
|---|---|
| Airport | Francisco de Sá Carneiro Airport (LPPR) |
Arrival
| Time | 2026-05-04 17:14 |
|---|---|
| Airport | London Gatwick Airport (EGKK) |
| Time | Latitude | Longitude | Altitude | Speed | Heading |
|---|---|---|---|---|---|
| 2026-05-04 16:41 | 49.62098 | -1.71122 | 37945 ft | 490 kts | 21° |
| 2026-05-04 16:41 | 49.71650 | -1.65926 | 36139 ft | 486 kts | 19° |
| 2026-05-04 16:42 | 49.81291 | -1.60662 | 33629 ft | 493 kts | 21° |
| 2026-05-04 16:43 | 49.87698 | -1.57088 | 32406 ft | 484 kts | 21° |
| 2026-05-04 16:43 | 49.93980 | -1.53574 | 31277 ft | 476 kts | 21° |
| 2026-05-04 16:43 | 49.97093 | -1.51832 | 30675 ft | 474 kts | 22° |
| 2026-05-04 16:44 | 50.09508 | -1.45495 | 28429 ft | 460 kts | 19° |
| 2026-05-04 16:45 | 50.15526 | -1.42612 | 27407 ft | 450 kts | 19° |
| 2026-05-04 16:46 | 50.24384 | -1.38255 | 25832 ft | 441 kts | 19° |
| 2026-05-04 16:46 | 50.30162 | -1.35419 | 25129 ft | 427 kts | 19° |
| 2026-05-04 16:47 | 50.35790 | -1.32659 | 24175 ft | 421 kts | 19° |
| 2026-05-04 16:47 | 50.41335 | -1.29930 | 23265 ft | 414 kts | 18° |
| 2026-05-04 16:48 | 50.49397 | -1.25541 | 21757 ft | 403 kts | 28° |
| 2026-05-04 16:48 | 50.51779 | -1.23381 | 21310 ft | 399 kts | 34° |
| 2026-05-04 16:49 | 50.56067 | -1.18005 | 20407 ft | 391 kts | 42° |
| 2026-05-04 16:49 | 50.60168 | -1.12489 | 19537 ft | 385 kts | 41° |
| 2026-05-04 16:50 | 50.64246 | -1.07080 | 18707 ft | 379 kts | 41° |
| 2026-05-04 16:50 | 50.67895 | -1.01183 | 17798 ft | 374 kts | 51° |
| 2026-05-04 16:51 | 50.71141 | -0.94840 | 16884 ft | 369 kts | 52° |
| 2026-05-04 16:51 | 50.72753 | -0.91698 | 16446 ft | 367 kts | 52° |
| 2026-05-04 16:51 | 50.75952 | -0.85492 | 15618 ft | 362 kts | 51° |
| 2026-05-04 16:52 | 50.79031 | -0.79586 | 15435 ft | 334 kts | 46° |
| 2026-05-04 16:52 | 50.80968 | -0.77538 | 15457 ft | 347 kts | 19° |
| 2026-05-04 16:53 | 50.85860 | -0.77986 | 15450 ft | 368 kts | 336° |
| 2026-05-04 16:53 | 50.90185 | -0.87151 | 15444 ft | 359 kts | 271° |
| 2026-05-04 16:54 | 50.89833 | -0.91025 | 15451 ft | 356 kts | 249° |
| 2026-05-04 16:55 | 50.81949 | -0.97793 | 15208 ft | 355 kts | 167° |
| 2026-05-04 16:55 | 50.77976 | -0.93404 | 14279 ft | 356 kts | 122° |
| 2026-05-04 16:56 | 50.76974 | -0.86353 | 13858 ft | 317 kts | 82° |
| 2026-05-04 16:56 | 50.79926 | -0.77611 | 12125 ft | 304 kts | 50° |
| 2026-05-04 16:57 | 50.81138 | -0.74943 | 11730 ft | 296 kts | 66° |
| 2026-05-04 16:57 | 50.81991 | -0.68618 | 10859 ft | 294 kts | 81° |
| 2026-05-04 16:58 | 50.83028 | -0.59227 | 10054 ft | 284 kts | 80° |
| 2026-05-04 16:58 | 50.83373 | -0.56189 | 10011 ft | 280 kts | 81° |
| 2026-05-04 16:59 | 50.84079 | -0.50002 | 10007 ft | 291 kts | 80° |
| 2026-05-04 17:00 | 50.85509 | -0.37504 | 9985 ft | 286 kts | 80° |
| 2026-05-04 17:00 | 50.88242 | -0.29579 | 10002 ft | 294 kts | 25° |
| 2026-05-04 17:01 | 50.92224 | -0.29403 | 10003 ft | 296 kts | 341° |
| 2026-05-04 17:01 | 50.96042 | -0.31855 | 9883 ft | 293 kts | 336° |
| 2026-05-04 17:02 | 50.99657 | -0.34339 | 8977 ft | 274 kts | 336° |
| 2026-05-04 17:02 | 51.02646 | -0.37728 | 7539 ft | 265 kts | 300° |
| 2026-05-04 17:03 | 51.03497 | -0.40367 | 7309 ft | 271 kts | 296° |
| 2026-05-04 17:03 | 51.04338 | -0.43083 | 7143 ft | 275 kts | 296° |
| 2026-05-04 17:03 | 51.05692 | -0.47496 | 6865 ft | 257 kts | 296° |
| 2026-05-04 17:04 | 51.07214 | -0.52515 | 5937 ft | 254 kts | 296° |
| 2026-05-04 17:04 | 51.08709 | -0.57508 | 5618 ft | 240 kts | 296° |
| 2026-05-04 17:05 | 51.10084 | -0.61964 | 5286 ft | 206 kts | 308° |
| 2026-05-04 17:05 | 51.12461 | -0.63211 | 4482 ft | 186 kts | 24° |
| 2026-05-04 17:06 | 51.14368 | -0.60511 | 3875 ft | 186 kts | 45° |
| 2026-05-04 17:06 | 51.15269 | -0.59023 | 3621 ft | 185 kts | 46° |
| 2026-05-04 17:07 | 51.17038 | -0.56080 | 3140 ft | 182 kts | 45° |
| 2026-05-04 17:07 | 51.17606 | -0.55134 | 3082 ft | 175 kts | 46° |
| 2026-05-04 17:07 | 51.18508 | -0.53009 | 3016 ft | 180 kts | 79° |
| 2026-05-04 17:07 | 51.18312 | -0.51023 | 3016 ft | 191 kts | 118° |
| 2026-05-04 17:08 | 51.17337 | -0.49631 | 3005 ft | 195 kts | 157° |
| 2026-05-04 17:08 | 51.14733 | -0.48586 | 2921 ft | 192 kts | 165° |
| 2026-05-04 17:08 | 51.13409 | -0.48098 | 2854 ft | 203 kts | 165° |
| 2026-05-04 17:09 | 51.11975 | -0.47527 | 2614 ft | 216 kts | 158° |
| 2026-05-04 17:09 | 51.10798 | -0.46139 | 2419 ft | 206 kts | 123° |
| 2026-05-04 17:09 | 51.10173 | -0.44223 | 2355 ft | 187 kts | 112° |
| 2026-05-04 17:10 | 51.09188 | -0.40591 | 2962 ft | 166 kts | 111° |
| 2026-05-04 17:10 | 51.08493 | -0.35843 | 2985 ft | 145 kts | 52° |
| 2026-05-04 17:11 | 51.09339 | -0.35030 | 3006 ft | 146 kts | 14° |
| 2026-05-04 17:11 | 51.10345 | -0.34635 | 3007 ft | 152 kts | 16° |
| 2026-05-04 17:11 | 51.12255 | -0.33495 | 2747 ft | 144 kts | 48° |
| 2026-05-04 17:12 | 51.12731 | -0.32099 | 2357 ft | 145 kts | 65° |
| 2026-05-04 17:12 | 51.13341 | -0.29421 | 2051 ft | 142 kts | 71° |
| 2026-05-04 17:13 | 51.14037 | -0.24602 | 1106 ft | 160 kts | 76° |
| 2026-05-04 17:14 | 51.14699 | -0.19866 | 218 ft | 116 kts | 77° |
| 2026-05-04 17:14 | 51.14835 | -0.18844 | 213 ft | 72 kts | 77° |
| 2026-05-04 17:14 | 51.15010 | -0.17886 | 218 ft | 26 kts | 53° |
| 2026-05-04 17:15 | 51.15125 | -0.17757 | 212 ft | 16 kts | 358° |
| 2026-05-04 17:15 | 51.15232 | -0.17776 | 219 ft | 0 kts | 353° |
| 2026-05-04 17:17 | 51.15249 | -0.17780 | 215 ft | 5 kts | 353° |
| 2026-05-04 17:18 | 51.15282 | -0.17756 | 213 ft | 6 kts | 65° |
| 2026-05-04 17:18 | 51.15286 | -0.17571 | 211 ft | 11 kts | 79° |
| 2026-05-04 17:19 | 51.15327 | -0.17388 | 221 ft | 9 kts | 37° |
| 2026-05-04 17:19 | 51.15469 | -0.17393 | 212 ft | 12 kts | 353° |
| 2026-05-04 17:20 | 51.15578 | -0.17439 | 215 ft | 3 kts | 16° |
| 2026-05-04 17:20 | 51.15596 | -0.17357 | 215 ft | 5 kts | 76° |
| 2026-05-04 17:20 | 51.15606 | -0.17294 | 216 ft | 7 kts | 75° |
| 2026-05-04 17:21 | 51.15639 | -0.17084 | 210 ft | 12 kts | 72° |
| 2026-05-04 17:21 | 51.15800 | -0.17076 | 209 ft | 13 kts | 348° |
| 2026-05-04 17:22 | 51.15886 | -0.17056 | 220 ft | 8 kts | 25° |
| 2026-05-04 17:22 | 51.15924 | -0.16994 | 216 ft | 9 kts | 74° |
| 2026-05-04 17:23 | 51.15892 | -0.16941 | 218 ft | 1 kts | 146° |
| 2026-05-04 17:23 | 51.15882 | -0.16927 | 218 ft | 0 kts | 138° |